ASA230 PANC-KSEA
Flight info
| Callsign | ASA230 |
|---|---|
| Flight time | N/A |
| Altitude | 33000 |
| Route | JOH LAIRE BKA DUGGS VIXOR MARNR8 |
| Aircraft | B738/M-SDE2E3GIJ4RWZ/LB1D1 |
Departure
| Time | 2026-04-30 20:18 |
|---|---|
| Airport | Ted Stevens Anchorage International Airport (PANC) |
Arrival
| Time | N/A |
|---|---|
| Airport | Seattle–Tacoma International Airport (KSEA) |
| Time | Latitude | Longitude | Altitude | Speed | Heading |
|---|---|---|---|---|---|
| 2026-04-30 20:01 | 61.17575 | -149.98488 | 109 ft | 0 kts | 104° |
| 2026-04-30 20:06 | 61.17575 | -149.98492 | 109 ft | 2 kts | 104° |
| 2026-04-30 20:06 | 61.17581 | -149.98544 | 107 ft | 4 kts | 104° |
| 2026-04-30 20:06 | 61.17588 | -149.98597 | 104 ft | 3 kts | 104° |
| 2026-04-30 20:06 | 61.17594 | -149.98640 | 104 ft | 4 kts | 108° |
| 2026-04-30 20:07 | 61.17605 | -149.98686 | 103 ft | 4 kts | 145° |
| 2026-04-30 20:07 | 61.17626 | -149.98706 | 104 ft | 4 kts | 160° |
| 2026-04-30 20:07 | 61.17634 | -149.98711 | 102 ft | 0 kts | 160° |
| 2026-04-30 20:09 | 61.17632 | -149.98710 | 103 ft | 1 kts | 160° |
| 2026-04-30 20:10 | 61.17594 | -149.98681 | 104 ft | 3 kts | 159° |
| 2026-04-30 20:10 | 61.17569 | -149.98662 | 105 ft | 4 kts | 159° |
| 2026-04-30 20:10 | 61.17543 | -149.98641 | 105 ft | 4 kts | 159° |
| 2026-04-30 20:11 | 61.17467 | -149.98579 | 107 ft | 8 kts | 158° |
| 2026-04-30 20:11 | 61.17414 | -149.98567 | 108 ft | 9 kts | 203° |
| 2026-04-30 20:11 | 61.17359 | -149.98635 | 108 ft | 9 kts | 211° |
| 2026-04-30 20:12 | 61.17251 | -149.98767 | 109 ft | 9 kts | 193° |
| 2026-04-30 20:12 | 61.17193 | -149.98746 | 109 ft | 9 kts | 163° |
| 2026-04-30 20:12 | 61.17137 | -149.98709 | 108 ft | 8 kts | 153° |
| 2026-04-30 20:13 | 61.17117 | -149.98600 | 114 ft | 9 kts | 95° |
| 2026-04-30 20:13 | 61.17117 | -149.98443 | 114 ft | 13 kts | 90° |
| 2026-04-30 20:13 | 61.17118 | -149.98244 | 114 ft | 15 kts | 90° |
| 2026-04-30 20:13 | 61.17118 | -149.98034 | 113 ft | 14 kts | 90° |
| 2026-04-30 20:14 | 61.17118 | -149.97837 | 111 ft | 14 kts | 90° |
| 2026-04-30 20:14 | 61.17117 | -149.97637 | 107 ft | 14 kts | 90° |
| 2026-04-30 20:14 | 61.17119 | -149.97433 | 104 ft | 14 kts | 85° |
| 2026-04-30 20:14 | 61.17127 | -149.97220 | 101 ft | 15 kts | 85° |
| 2026-04-30 20:15 | 61.17130 | -149.96992 | 97 ft | 16 kts | 90° |
| 2026-04-30 20:15 | 61.17108 | -149.96810 | 97 ft | 11 kts | 146° |
| 2026-04-30 20:15 | 61.17030 | -149.96803 | 98 ft | 11 kts | 182° |
| 2026-04-30 20:15 | 61.16953 | -149.96810 | 99 ft | 12 kts | 187° |
| 2026-04-30 20:16 | 61.16899 | -149.96934 | 98 ft | 12 kts | 247° |
| 2026-04-30 20:16 | 61.16867 | -149.97093 | 101 ft | 12 kts | 247° |
| 2026-04-30 20:16 | 61.16836 | -149.97246 | 105 ft | 11 kts | 247° |
| 2026-04-30 20:16 | 61.16805 | -149.97397 | 108 ft | 11 kts | 247° |
| 2026-04-30 20:17 | 61.16790 | -149.97553 | 111 ft | 13 kts | 270° |
| 2026-04-30 20:17 | 61.16788 | -149.98089 | 116 ft | 71 kts | 269° |
| 2026-04-30 20:17 | 61.16786 | -149.99586 | 127 ft | 134 kts | 270° |
| 2026-04-30 20:17 | 61.16785 | -150.01853 | 306 ft | 170 kts | 270° |
| 2026-04-30 20:18 | 61.16779 | -150.04305 | 1060 ft | 173 kts | 265° |
| 2026-04-30 20:18 | 61.16703 | -150.06880 | 1577 ft | 191 kts | 262° |
| 2026-04-30 20:18 | 61.16583 | -150.09812 | 1864 ft | 217 kts | 261° |
| 2026-04-30 20:18 | 61.16051 | -150.12799 | 2041 ft | 228 kts | 223° |
| 2026-04-30 20:19 | 61.14683 | -150.14342 | 2378 ft | 233 kts | 184° |
| 2026-04-30 20:19 | 61.13608 | -150.14179 | 2630 ft | 237 kts | 161° |
| 2026-04-30 20:19 | 61.11841 | -150.11601 | 3729 ft | 236 kts | 126° |
| 2026-04-30 20:19 | 61.11115 | -150.08580 | 4564 ft | 240 kts | 115° |
| 2026-04-30 20:20 | 61.10554 | -150.05280 | 5290 ft | 247 kts | 113° |
| 2026-04-30 20:20 | 61.10009 | -150.01845 | 5949 ft | 255 kts | 113° |
| 2026-04-30 20:20 | 61.09452 | -149.98306 | 6587 ft | 262 kts | 114° |
| 2026-04-30 20:20 | 61.08877 | -149.94692 | 7242 ft | 265 kts | 114° |
| 2026-04-30 20:21 | 61.08293 | -149.91058 | 7919 ft | 268 kts | 114° |
| 2026-04-30 20:21 | 61.07701 | -149.87411 | 8574 ft | 272 kts | 114° |
| 2026-04-30 20:21 | 61.07088 | -149.83672 | 9231 ft | 276 kts | 114° |
| 2026-04-30 20:21 | 61.06462 | -149.79882 | 9879 ft | 281 kts | 114° |
| 2026-04-30 20:22 | 61.05820 | -149.76023 | 10327 ft | 292 kts | 114° |
| 2026-04-30 20:22 | 61.05129 | -149.71915 | 10485 ft | 313 kts | 114° |
| 2026-04-30 20:22 | 61.04387 | -149.67524 | 10614 ft | 333 kts | 114° |
| 2026-04-30 20:22 | 61.03604 | -149.62890 | 10833 ft | 349 kts | 114° |
| 2026-04-30 20:23 | 61.02798 | -149.58108 | 11176 ft | 358 kts | 114° |
| 2026-04-30 20:23 | 61.01972 | -149.53241 | 11790 ft | 359 kts | 114° |
| 2026-04-30 20:23 | 61.01150 | -149.48374 | 12348 ft | 364 kts | 114° |
| 2026-04-30 20:23 | 61.00303 | -149.43395 | 12827 ft | 371 kts | 115° |
| 2026-04-30 20:24 | 60.99442 | -149.38352 | 13440 ft | 375 kts | 114° |
| 2026-04-30 20:24 | 60.98566 | -149.33232 | 14042 ft | 381 kts | 115° |
| 2026-04-30 20:24 | 60.97688 | -149.28126 | 14635 ft | 384 kts | 115° |
| 2026-04-30 20:24 | 60.96791 | -149.22914 | 15287 ft | 387 kts | 115° |
| 2026-04-30 20:25 | 60.94976 | -149.12388 | 16452 ft | 393 kts | 115° |
| 2026-04-30 20:25 | 60.94052 | -149.07082 | 17107 ft | 396 kts | 115° |
| 2026-04-30 20:26 | 60.92172 | -148.96338 | 18246 ft | 402 kts | 114° |
| 2026-04-30 20:26 | 60.90243 | -148.85371 | 19150 ft | 411 kts | 114° |
| 2026-04-30 20:26 | 60.89264 | -148.79818 | 19672 ft | 413 kts | 115° |
| 2026-04-30 20:27 | 60.87286 | -148.68687 | 20643 ft | 418 kts | 115° |
| 2026-04-30 20:27 | 60.85275 | -148.57372 | 21534 ft | 424 kts | 115° |
| 2026-04-30 20:28 | 60.83238 | -148.46009 | 22398 ft | 430 kts | 115° |
| 2026-04-30 20:28 | 60.81148 | -148.34431 | 23300 ft | 436 kts | 115° |
| 2026-04-30 20:29 | 60.79021 | -148.22720 | 24043 ft | 441 kts | 115° |
| 2026-04-30 20:30 | 60.75768 | -148.04940 | 25121 ft | 448 kts | 115° |
| 2026-04-30 20:30 | 60.72446 | -147.86947 | 26327 ft | 453 kts | 115° |
| 2026-04-30 20:31 | 60.69063 | -147.68803 | 27389 ft | 461 kts | 115° |
| 2026-04-30 20:32 | 60.65984 | -147.52429 | 28333 ft | 466 kts | 115° |
| 2026-04-30 20:32 | 60.63636 | -147.40036 | 28951 ft | 471 kts | 115° |
| 2026-04-30 20:33 | 60.62447 | -147.33790 | 29305 ft | 472 kts | 115° |
| 2026-04-30 20:33 | 60.60072 | -147.21354 | 30314 ft | 468 kts | 115° |
| 2026-04-30 20:33 | 60.58903 | -147.15269 | 30712 ft | 466 kts | 115° |
| 2026-04-30 20:34 | 60.56524 | -147.02941 | 31462 ft | 464 kts | 115° |
| 2026-04-30 20:34 | 60.54154 | -146.90743 | 32131 ft | 464 kts | 115° |
| 2026-04-30 20:35 | 60.52982 | -146.84739 | 32532 ft | 461 kts | 115° |
| 2026-04-30 20:35 | 60.51805 | -146.78721 | 32985 ft | 458 kts | 115° |
| 2026-04-30 20:35 | 60.49433 | -146.66652 | 33225 ft | 463 kts | 115° |
| 2026-04-30 20:36 | 60.46937 | -146.54642 | 33222 ft | 458 kts | 118° |
| 2026-04-30 20:37 | 60.42733 | -146.37438 | 33220 ft | 454 kts | 120° |
| 2026-04-30 20:37 | 60.39891 | -146.26000 | 33239 ft | 455 kts | 120° |
| 2026-04-30 20:38 | 60.37067 | -146.14553 | 33236 ft | 456 kts | 120° |
| 2026-04-30 20:38 | 60.34235 | -146.03061 | 33228 ft | 457 kts | 120° |
| 2026-04-30 20:39 | 60.29949 | -145.85760 | 33203 ft | 461 kts | 120° |
| 2026-04-30 20:40 | 60.25630 | -145.68462 | 33222 ft | 463 kts | 120° |
| 2026-04-30 20:40 | 60.22726 | -145.56911 | 33225 ft | 461 kts | 120° |
| 2026-04-30 20:41 | 60.18363 | -145.39670 | 33225 ft | 460 kts | 120° |
| 2026-04-30 20:41 | 60.15457 | -145.28257 | 33208 ft | 457 kts | 120° |
| 2026-04-30 20:42 | 60.12557 | -145.16928 | 33227 ft | 455 kts | 120° |
| 2026-04-30 20:43 | 60.08202 | -145.00026 | 33232 ft | 454 kts | 120° |
| 2026-04-30 20:43 | 60.05306 | -144.88860 | 33236 ft | 455 kts | 120° |
| 2026-04-30 20:44 | 60.00908 | -144.72007 | 33237 ft | 456 kts | 121° |
| 2026-04-30 20:45 | 59.94990 | -144.49521 | 33228 ft | 458 kts | 121° |
| 2026-04-30 20:45 | 59.92009 | -144.38280 | 33243 ft | 459 kts | 121° |
| 2026-04-30 20:46 | 59.85993 | -144.15764 | 33228 ft | 460 kts | 121° |
| 2026-04-30 20:47 | 59.81473 | -143.98993 | 33237 ft | 460 kts | 121° |
| 2026-04-30 20:48 | 59.76918 | -143.82221 | 33237 ft | 460 kts | 121° |
| 2026-04-30 20:48 | 59.73873 | -143.71074 | 33236 ft | 459 kts | 121° |
| 2026-04-30 20:49 | 59.70842 | -143.60034 | 33236 ft | 459 kts | 121° |
| 2026-04-30 20:50 | 59.66248 | -143.43405 | 33244 ft | 458 kts | 122° |
| 2026-04-30 20:50 | 59.63182 | -143.32371 | 33253 ft | 457 kts | 122° |
| 2026-04-30 20:51 | 59.60125 | -143.21428 | 33239 ft | 457 kts | 122° |
| 2026-04-30 20:51 | 59.55499 | -143.04961 | 33251 ft | 457 kts | 122° |
| 2026-04-30 20:52 | 59.52404 | -142.94011 | 33240 ft | 457 kts | 122° |
| 2026-04-30 20:53 | 59.47741 | -142.77614 | 33255 ft | 457 kts | 122° |
| 2026-04-30 20:53 | 59.44620 | -142.66705 | 33253 ft | 458 kts | 122° |
| 2026-04-30 20:54 | 59.39932 | -142.50410 | 33243 ft | 459 kts | 123° |
| 2026-04-30 20:55 | 59.35205 | -142.34098 | 33248 ft | 458 kts | 123° |
| 2026-04-30 20:55 | 59.32039 | -142.23237 | 33246 ft | 459 kts | 123° |
| 2026-04-30 20:56 | 59.27275 | -142.06992 | 33254 ft | 459 kts | 123° |
| 2026-04-30 20:57 | 59.22512 | -141.90861 | 33251 ft | 458 kts | 123° |
| 2026-04-30 20:57 | 59.19322 | -141.80119 | 33254 ft | 457 kts | 123° |
| 2026-04-30 20:58 | 59.14514 | -141.64025 | 33254 ft | 457 kts | 124° |
| 2026-04-30 20:58 | 59.11325 | -141.53410 | 33258 ft | 456 kts | 124° |
| 2026-04-30 20:59 | 59.06501 | -141.37447 | 33263 ft | 455 kts | 124° |
| 2026-04-30 21:00 | 59.00053 | -141.16278 | 33261 ft | 455 kts | 124° |
| 2026-04-30 21:01 | 58.95192 | -141.00447 | 33262 ft | 455 kts | 124° |
| 2026-04-30 21:02 | 58.90315 | -140.84667 | 33253 ft | 455 kts | 124° |
| 2026-04-30 21:02 | 58.87054 | -140.74176 | 33265 ft | 455 kts | 125° |
| 2026-04-30 21:03 | 58.83803 | -140.63756 | 33262 ft | 456 kts | 125° |
| 2026-04-30 21:03 | 58.80505 | -140.53241 | 33274 ft | 461 kts | 125° |
| 2026-04-30 21:04 | 58.76988 | -140.42808 | 33274 ft | 469 kts | 128° |
| 2026-04-30 21:04 | 58.71391 | -140.27313 | 33259 ft | 472 kts | 128° |
| 2026-04-30 21:05 | 58.67628 | -140.16848 | 33258 ft | 473 kts | 128° |
| 2026-04-30 21:05 | 58.63919 | -140.06490 | 33258 ft | 472 kts | 128° |
| 2026-04-30 21:06 | 58.60192 | -139.96104 | 33263 ft | 472 kts | 128° |
| 2026-04-30 21:06 | 58.56465 | -139.85761 | 33259 ft | 471 kts | 128° |
| 2026-04-30 21:07 | 58.52733 | -139.75457 | 33261 ft | 470 kts | 128° |
| 2026-04-30 21:07 | 58.48996 | -139.65183 | 33258 ft | 470 kts | 128° |
| 2026-04-30 21:08 | 58.45246 | -139.54920 | 33260 ft | 470 kts | 129° |
| 2026-04-30 21:08 | 58.41518 | -139.44759 | 33261 ft | 470 kts | 129° |
| 2026-04-30 21:09 | 58.37754 | -139.34544 | 33254 ft | 469 kts | 128° |
| 2026-04-30 21:09 | 58.33992 | -139.24379 | 33259 ft | 469 kts | 129° |
| 2026-04-30 21:10 | 58.30242 | -139.14290 | 33262 ft | 469 kts | 129° |
| 2026-04-30 21:10 | 58.26461 | -139.04159 | 33258 ft | 469 kts | 129° |
| 2026-04-30 21:11 | 58.22677 | -138.94063 | 33258 ft | 469 kts | 129° |
| 2026-04-30 21:11 | 58.18878 | -138.83971 | 33258 ft | 469 kts | 129° |
| 2026-04-30 21:12 | 58.15071 | -138.73901 | 33259 ft | 469 kts | 129° |
| 2026-04-30 21:12 | 58.11263 | -138.63868 | 33258 ft | 469 kts | 129° |
| 2026-04-30 21:13 | 58.07447 | -138.53859 | 33258 ft | 469 kts | 129° |
| 2026-04-30 21:13 | 58.03647 | -138.43929 | 33248 ft | 469 kts | 129° |
| 2026-04-30 21:14 | 57.99817 | -138.33966 | 33259 ft | 469 kts | 129° |
| 2026-04-30 21:14 | 57.95976 | -138.24017 | 33256 ft | 469 kts | 129° |
| 2026-04-30 21:15 | 57.92128 | -138.14091 | 33256 ft | 469 kts | 129° |
| 2026-04-30 21:15 | 57.88271 | -138.04182 | 33258 ft | 469 kts | 129° |
| 2026-04-30 21:16 | 57.84408 | -137.94298 | 33255 ft | 469 kts | 129° |
| 2026-04-30 21:16 | 57.80554 | -137.84478 | 33257 ft | 470 kts | 129° |
| 2026-04-30 21:17 | 57.76669 | -137.74618 | 33258 ft | 470 kts | 129° |
| 2026-04-30 21:17 | 57.72773 | -137.64772 | 33261 ft | 470 kts | 129° |
| 2026-04-30 21:18 | 57.68864 | -137.54935 | 33238 ft | 471 kts | 129° |
| 2026-04-30 21:18 | 57.64953 | -137.45134 | 33255 ft | 471 kts | 129° |
| 2026-04-30 21:19 | 57.61028 | -137.35335 | 33255 ft | 471 kts | 129° |
| 2026-04-30 21:19 | 57.57106 | -137.25583 | 33255 ft | 471 kts | 129° |
| 2026-04-30 21:20 | 57.53166 | -137.15827 | 33249 ft | 472 kts | 129° |
| 2026-04-30 21:20 | 57.49876 | -137.07712 | 33237 ft | 472 kts | 129° |
| 2026-04-30 21:21 | 57.45264 | -136.96381 | 33256 ft | 471 kts | 129° |
| 2026-04-30 21:22 | 57.39983 | -136.83471 | 33250 ft | 471 kts | 129° |
| 2026-04-30 21:23 | 57.32028 | -136.64155 | 33243 ft | 471 kts | 129° |
| 2026-04-30 21:23 | 57.26040 | -136.49719 | 33255 ft | 471 kts | 129° |
| 2026-04-30 21:24 | 57.22073 | -136.40202 | 33240 ft | 470 kts | 129° |
| 2026-04-30 21:24 | 57.18075 | -136.30650 | 33249 ft | 470 kts | 129° |
| 2026-04-30 21:25 | 57.12057 | -136.16339 | 33232 ft | 470 kts | 129° |
| 2026-04-30 21:26 | 57.06026 | -136.02084 | 33233 ft | 470 kts | 129° |
| 2026-04-30 21:27 | 57.00010 | -135.87946 | 33245 ft | 470 kts | 129° |
| 2026-04-30 21:27 | 56.95964 | -135.78484 | 33242 ft | 471 kts | 129° |
| 2026-04-30 21:28 | 56.89881 | -135.64322 | 33246 ft | 472 kts | 129° |
| 2026-04-30 21:29 | 56.83579 | -135.50501 | 33245 ft | 472 kts | 135° |
| 2026-04-30 21:30 | 56.71785 | -135.29625 | 33241 ft | 474 kts | 136° |
| 2026-04-30 21:31 | 56.59985 | -135.08605 | 33242 ft | 477 kts | 136° |
| 2026-04-30 21:32 | 56.52858 | -134.95967 | 33237 ft | 479 kts | 135° |
| 2026-04-30 21:32 | 56.48067 | -134.87514 | 33241 ft | 481 kts | 136° |
| 2026-04-30 21:33 | 56.40872 | -134.74881 | 33242 ft | 482 kts | 136° |
| 2026-04-30 21:34 | 56.36045 | -134.66443 | 33236 ft | 483 kts | 136° |
| 2026-04-30 21:34 | 56.28793 | -134.53829 | 33239 ft | 483 kts | 136° |
| 2026-04-30 21:35 | 56.23951 | -134.45445 | 33236 ft | 482 kts | 136° |
| 2026-04-30 21:35 | 56.19141 | -134.37147 | 33233 ft | 482 kts | 136° |
| 2026-04-30 21:36 | 56.14296 | -134.28819 | 33239 ft | 482 kts | 136° |
| 2026-04-30 21:37 | 56.04594 | -134.12232 | 33245 ft | 481 kts | 136° |
| 2026-04-30 21:37 | 55.99741 | -134.03983 | 33236 ft | 481 kts | 136° |
| 2026-04-30 21:38 | 55.94887 | -133.95761 | 33243 ft | 481 kts | 136° |
| 2026-04-30 21:38 | 55.90049 | -133.87597 | 33252 ft | 480 kts | 137° |
| 2026-04-30 21:39 | 55.85204 | -133.79447 | 33244 ft | 479 kts | 137° |
| 2026-04-30 21:39 | 55.80363 | -133.71335 | 33247 ft | 478 kts | 137° |
| 2026-04-30 21:40 | 55.75521 | -133.63250 | 33248 ft | 477 kts | 137° |
| 2026-04-30 21:40 | 55.70675 | -133.55190 | 33252 ft | 476 kts | 138° |
| 2026-04-30 21:41 | 55.65842 | -133.47176 | 33243 ft | 476 kts | 138° |
| 2026-04-30 21:41 | 55.61007 | -133.39189 | 33250 ft | 475 kts | 138° |
| 2026-04-30 21:42 | 55.56197 | -133.31271 | 33249 ft | 474 kts | 138° |
| 2026-04-30 21:42 | 55.51364 | -133.23345 | 33239 ft | 473 kts | 139° |
| 2026-04-30 21:43 | 55.46544 | -133.15466 | 33248 ft | 472 kts | 139° |
| 2026-04-30 21:43 | 55.41722 | -133.07610 | 33247 ft | 471 kts | 139° |
| 2026-04-30 21:44 | 55.36891 | -132.99769 | 33255 ft | 472 kts | 139° |
| 2026-04-30 21:44 | 55.32097 | -132.92014 | 33240 ft | 471 kts | 139° |
| 2026-04-30 21:45 | 55.27297 | -132.84280 | 33250 ft | 470 kts | 140° |
| 2026-04-30 21:45 | 55.22439 | -132.76473 | 33253 ft | 470 kts | 140° |
| 2026-04-30 21:46 | 55.17611 | -132.68743 | 33253 ft | 469 kts | 140° |
| 2026-04-30 21:46 | 55.12818 | -132.61095 | 33252 ft | 469 kts | 140° |
| 2026-04-30 21:47 | 55.07986 | -132.53422 | 33247 ft | 468 kts | 140° |
| 2026-04-30 21:47 | 55.03153 | -132.45760 | 33256 ft | 468 kts | 140° |
| 2026-04-30 21:48 | 54.98337 | -132.38148 | 33251 ft | 468 kts | 140° |
| 2026-04-30 21:48 | 54.93513 | -132.30555 | 33263 ft | 467 kts | 140° |
| 2026-04-30 21:49 | 54.88675 | -132.22965 | 33244 ft | 468 kts | 140° |
| 2026-04-30 21:49 | 54.83873 | -132.15461 | 33250 ft | 468 kts | 141° |
| 2026-04-30 21:50 | 54.79037 | -132.07925 | 33252 ft | 468 kts | 141° |
| 2026-04-30 21:50 | 54.74184 | -132.00389 | 33255 ft | 468 kts | 141° |
| 2026-04-30 21:51 | 54.69329 | -131.92881 | 33235 ft | 468 kts | 141° |
| 2026-04-30 21:51 | 54.64478 | -131.85386 | 33253 ft | 469 kts | 141° |
| 2026-04-30 21:52 | 54.59597 | -131.77878 | 33269 ft | 471 kts | 141° |
| 2026-04-30 21:52 | 54.54684 | -131.70358 | 33290 ft | 474 kts | 141° |
| 2026-04-30 21:53 | 54.49739 | -131.62810 | 33265 ft | 475 kts | 141° |
| 2026-04-30 21:53 | 54.44792 | -131.55280 | 33271 ft | 475 kts | 141° |
| 2026-04-30 21:54 | 54.39871 | -131.47815 | 33274 ft | 475 kts | 142° |
| 2026-04-30 21:54 | 54.34907 | -131.40310 | 33256 ft | 475 kts | 142° |
| 2026-04-30 21:55 | 54.29944 | -131.32833 | 33276 ft | 475 kts | 142° |
| 2026-04-30 21:55 | 54.24971 | -131.25365 | 33273 ft | 475 kts | 142° |
| 2026-04-30 21:56 | 54.20005 | -131.17931 | 33265 ft | 474 kts | 142° |
| 2026-04-30 21:56 | 54.15069 | -131.10569 | 33267 ft | 474 kts | 142° |
| 2026-04-30 21:57 | 54.10063 | -131.03126 | 33260 ft | 474 kts | 142° |
| 2026-04-30 21:57 | 54.05118 | -130.95798 | 33255 ft | 474 kts | 142° |
| 2026-04-30 21:58 | 54.00141 | -130.88446 | 33267 ft | 474 kts | 142° |
| 2026-04-30 21:58 | 53.95157 | -130.81108 | 33258 ft | 474 kts | 142° |
| 2026-04-30 21:59 | 53.90163 | -130.73781 | 33260 ft | 474 kts | 142° |
| 2026-04-30 22:00 | 53.82649 | -130.62806 | 33231 ft | 475 kts | 143° |
| 2026-04-30 22:00 | 53.75154 | -130.51903 | 33248 ft | 476 kts | 143° |
| 2026-04-30 22:01 | 53.70116 | -130.44606 | 33246 ft | 476 kts | 143° |
| 2026-04-30 22:01 | 53.65080 | -130.37336 | 33248 ft | 476 kts | 143° |
| 2026-04-30 22:02 | 53.60062 | -130.30116 | 33256 ft | 477 kts | 143° |
| 2026-04-30 22:02 | 53.55015 | -130.22877 | 33260 ft | 477 kts | 143° |
| 2026-04-30 22:03 | 53.49952 | -130.15639 | 33279 ft | 477 kts | 143° |
| 2026-04-30 22:03 | 53.44883 | -130.08417 | 33252 ft | 477 kts | 144° |
| 2026-04-30 22:04 | 53.39816 | -130.01221 | 33259 ft | 477 kts | 144° |
| 2026-04-30 22:05 | 53.32242 | -129.90505 | 33264 ft | 477 kts | 144° |
| 2026-04-30 22:05 | 53.28030 | -129.84569 | 33257 ft | 476 kts | 144° |
| 2026-04-30 22:06 | 53.22101 | -129.76239 | 33255 ft | 476 kts | 144° |
| 2026-04-30 22:06 | 53.14489 | -129.65591 | 33263 ft | 476 kts | 144° |
| 2026-04-30 22:07 | 53.09447 | -129.58563 | 33255 ft | 476 kts | 144° |
| 2026-04-30 22:07 | 53.04358 | -129.51492 | 33234 ft | 476 kts | 145° |
| 2026-04-30 22:08 | 53.00248 | -129.45364 | 33258 ft | 478 kts | 141° |
| 2026-04-30 22:08 | 52.94677 | -129.36451 | 33265 ft | 478 kts | 140° |
| 2026-04-30 22:09 | 52.89896 | -129.28786 | 33254 ft | 478 kts | 141° |
| 2026-04-30 22:09 | 52.85862 | -129.22387 | 33216 ft | 478 kts | 141° |
| 2026-04-30 22:10 | 52.81083 | -129.14869 | 33241 ft | 477 kts | 141° |
| 2026-04-30 22:10 | 52.76336 | -129.07435 | 33249 ft | 477 kts | 141° |
| 2026-04-30 22:11 | 52.69083 | -128.96123 | 33237 ft | 477 kts | 141° |
| 2026-04-30 22:12 | 52.64202 | -128.88536 | 33235 ft | 476 kts | 142° |
| 2026-04-30 22:12 | 52.59386 | -128.81074 | 33241 ft | 475 kts | 142° |
| 2026-04-30 22:13 | 52.54600 | -128.73684 | 33236 ft | 475 kts | 142° |
| 2026-04-30 22:13 | 52.49780 | -128.66264 | 33239 ft | 475 kts | 142° |
| 2026-04-30 22:14 | 52.44951 | -128.58855 | 33222 ft | 474 kts | 142° |
| 2026-04-30 22:14 | 52.40127 | -128.51474 | 33233 ft | 473 kts | 142° |
| 2026-04-30 22:15 | 52.35315 | -128.44135 | 33239 ft | 473 kts | 142° |
| 2026-04-30 22:15 | 52.30523 | -128.36852 | 33230 ft | 473 kts | 142° |
| 2026-04-30 22:16 | 52.25697 | -128.29537 | 33236 ft | 473 kts | 142° |
| 2026-04-30 22:17 | 52.16092 | -128.15048 | 33229 ft | 473 kts | 142° |
| 2026-04-30 22:17 | 52.08764 | -128.04071 | 33178 ft | 473 kts | 143° |
| 2026-04-30 22:18 | 52.01541 | -127.93175 | 33209 ft | 477 kts | 141° |
| 2026-04-30 22:19 | 51.94169 | -127.82165 | 33245 ft | 480 kts | 144° |
| 2026-04-30 22:20 | 51.86725 | -127.71276 | 33212 ft | 484 kts | 143° |
| 2026-04-30 22:20 | 51.79228 | -127.60270 | 33225 ft | 486 kts | 143° |
| 2026-04-30 22:21 | 51.74226 | -127.52906 | 33231 ft | 486 kts | 144° |
| 2026-04-30 22:21 | 51.69225 | -127.45611 | 33175 ft | 487 kts | 143° |
| 2026-04-30 22:22 | 51.64256 | -127.38365 | 33216 ft | 486 kts | 143° |
| 2026-04-30 22:22 | 51.59185 | -127.31010 | 33190 ft | 487 kts | 144° |
| 2026-04-30 22:23 | 51.54146 | -127.23719 | 33226 ft | 486 kts | 144° |
| 2026-04-30 22:23 | 51.49122 | -127.16428 | 33205 ft | 487 kts | 143° |
| 2026-04-30 22:24 | 51.44108 | -127.09218 | 33194 ft | 486 kts | 143° |
| 2026-04-30 22:24 | 51.39077 | -127.01976 | 33211 ft | 485 kts | 144° |
| 2026-04-30 22:25 | 51.34054 | -126.94807 | 33222 ft | 483 kts | 144° |
| 2026-04-30 22:25 | 51.29032 | -126.87638 | 33213 ft | 485 kts | 143° |
| 2026-04-30 22:26 | 51.21466 | -126.76889 | 33217 ft | 486 kts | 144° |
| 2026-04-30 22:27 | 51.16421 | -126.69744 | 33217 ft | 487 kts | 143° |
| 2026-04-30 22:27 | 51.08807 | -126.59013 | 33188 ft | 486 kts | 143° |
| 2026-04-30 22:28 | 51.01190 | -126.48358 | 33201 ft | 486 kts | 144° |
| 2026-04-30 22:29 | 50.91065 | -126.34209 | 33194 ft | 485 kts | 143° |
| 2026-04-30 22:31 | 50.73380 | -126.09659 | 33189 ft | 483 kts | 143° |
| 2026-04-30 22:32 | 50.60705 | -125.92309 | 33185 ft | 482 kts | 143° |
| 2026-04-30 22:33 | 50.48055 | -125.75055 | 33181 ft | 479 kts | 143° |
| 2026-04-30 22:35 | 50.35478 | -125.58049 | 33169 ft | 478 kts | 143° |
| 2026-04-30 22:36 | 50.22859 | -125.41103 | 33177 ft | 477 kts | 143° |
| 2026-04-30 22:37 | 50.12796 | -125.27676 | 33175 ft | 477 kts | 143° |
| 2026-04-30 22:38 | 50.02678 | -125.14268 | 33164 ft | 477 kts | 143° |
| 2026-04-30 22:39 | 49.95089 | -125.04252 | 33158 ft | 476 kts | 143° |
| 2026-04-30 22:40 | 49.79966 | -124.84421 | 33154 ft | 474 kts | 143° |
| 2026-04-30 22:41 | 49.67402 | -124.68074 | 33177 ft | 471 kts | 143° |
| 2026-04-30 22:43 | 49.52430 | -124.48742 | 33170 ft | 465 kts | 143° |
| 2026-04-30 22:44 | 49.42508 | -124.36019 | 33151 ft | 463 kts | 143° |
| 2026-04-30 22:45 | 49.27748 | -124.17218 | 33157 ft | 458 kts | 143° |
| 2026-04-30 22:47 | 49.13023 | -123.98612 | 33161 ft | 457 kts | 143° |
| 2026-04-30 22:48 | 49.03233 | -123.86324 | 33152 ft | 457 kts | 143° |
| 2026-04-30 22:49 | 48.88462 | -123.67904 | 33160 ft | 458 kts | 143° |
| 2026-04-30 22:51 | 48.73568 | -123.49472 | 31727 ft | 462 kts | 143° |
| 2026-04-30 22:51 | 48.68289 | -123.44027 | 30231 ft | 459 kts | 151° |
| 2026-04-30 22:52 | 48.65550 | -123.41536 | 29286 ft | 460 kts | 151° |
| 2026-04-30 22:52 | 48.60104 | -123.36606 | 28013 ft | 451 kts | 151° |
| 2026-04-30 22:53 | 48.54841 | -123.31759 | 26850 ft | 441 kts | 150° |
| 2026-04-30 22:53 | 48.49667 | -123.26960 | 25700 ft | 433 kts | 150° |
| 2026-04-30 22:53 | 48.47111 | -123.24591 | 25141 ft | 429 kts | 150° |
| 2026-04-30 22:54 | 48.42059 | -123.19920 | 24038 ft | 423 kts | 150° |
| 2026-04-30 22:55 | 48.34849 | -123.13272 | 23462 ft | 387 kts | 150° |
| 2026-04-30 22:55 | 48.30307 | -123.09100 | 22605 ft | 379 kts | 150° |
| 2026-04-30 22:56 | 48.25878 | -123.05041 | 21751 ft | 371 kts | 150° |
| 2026-04-30 22:56 | 48.20065 | -122.99722 | 20581 ft | 364 kts | 150° |
| 2026-04-30 22:57 | 48.15765 | -122.95798 | 19735 ft | 360 kts | 150° |
| 2026-04-30 22:57 | 48.11502 | -122.91914 | 18880 ft | 356 kts | 150° |
| 2026-04-30 22:58 | 48.07277 | -122.88071 | 17986 ft | 352 kts | 149° |
| 2026-04-30 22:59 | 48.01256 | -122.82607 | 17191 ft | 332 kts | 150° |
| 2026-04-30 22:59 | 47.95389 | -122.77296 | 16101 ft | 326 kts | 150° |